Armadores I — SY8463 — position and weather

sailwx.info

Track history (hours):
 
Tides and Currents Weather Stations Pressure Air Temp Water Temp Dewpoint Dewpoint Depression Visibility Wind Speed Wind Dir Waves Ship Positions

Armadores I

Last reported at 2014-Sep-02 23:31 UTC. Time now 2014-Sep-03 00:12 UTC.
Position N 37°57' E 023°37'.

Length 32 m.

Type: Tug. MMSI: 240694000.

Date/timePositionNaut miles runAvg speedWind from/ knotsBaromVisibWave heightAir tempDewpointWater temp
2014-Sep-02 23:31N 37°57' E 023°37'0 0.0
2014-Sep-02 22:34N 37°57' E 023°37'0 0.0
2014-Sep-02 21:33N 37°57' E 023°37'0 0.0
2014-Sep-02 20:34N 37°57' E 023°37'0 0.0
2014-Sep-02 19:34N 37°57' E 023°37'0 0.0
2014-Sep-02 18:34N 37°57' E 023°37'0 0.0
2014-Sep-02 17:34N 37°57' E 023°37'0 0.0
2014-Sep-02 16:34N 37°57' E 023°37'1 1.4
2014-Sep-02 15:34N 37°56' E 023°37'1 0.8
2014-Sep-02 14:33N 37°57' E 023°36'1 0.9
2014-Sep-02 13:33N 37°57' E 023°37'0 0.0
2014-Sep-02 12:33N 37°57' E 023°37'0 0.4
2014-Sep-02 11:34N 37°57' E 023°36'2 0.7
2014-Sep-02 08:33N 37°56' E 023°35'8 8.4
2014-Sep-02 07:34N 37°52' E 023°25'6 5.9
2014-Sep-02 06:32N 37°58' E 023°23'1 1.2
2014-Sep-02 05:33N 37°58' E 023°24'0 0.0
2014-Sep-02 04:28N 37°58' E 023°24'6 5.7
2014-Sep-02 03:26N 38°00' E 023°31'6 6.7
2014-Sep-02 02:29N 37°56' E 023°38'0 0.3
2014-Sep-02 01:32N 37°56' E 023°37'0 0.1
2014-Sep-02 00:33N 37°56' E 023°37'0 0.0
2014-Sep-01 23:33N 37°56' E 023°37'0 0.0
2014-Sep-01 22:32N 37°56' E 023°37'0 0.0
2014-Sep-01 21:28N 37°56' E 023°37'1 1.4
2014-Sep-01 20:33N 37°57' E 023°36'1 0.8
2014-Sep-01 19:33N 37°57' E 023°37'1 0.7
2014-Sep-01 18:33N 37°57' E 023°36'2 1.6
2014-Sep-01 17:33N 37°58' E 023°34'0 0.0
2014-Sep-01 16:33N 37°58' E 023°34'0 0.0
2014-Sep-01 15:33N 37°58' E 023°34'0 0.0
2014-Sep-01 14:33N 37°58' E 023°34'0 0.0
2014-Sep-01 13:33N 37°58' E 023°34'0 0.0
2014-Sep-01 12:33N 37°58' E 023°34'0 0.0
2014-Sep-01 11:33N 37°58' E 023°34'0 0.0
2014-Sep-01 03:24N 37°58' E 023°34'2 2.7
2014-Sep-01 02:33N 37°57' E 023°37'0 0.0
2014-Sep-01 01:33N 37°57' E 023°37'0 0.0
2014-Sep-01 00:33N 37°57' E 023°37'0 0.0
2014-Aug-31 23:34N 37°57' E 023°37'1 1.2
2014-Aug-31 22:33N 37°57' E 023°35'1 1.2
2014-Aug-31 21:33N 37°57' E 023°37'1 1.1
2014-Aug-31 20:34N 37°57' E 023°35'1 0.8
2014-Aug-31 19:34N 37°57' E 023°35'2 1.7
2014-Aug-31 18:33N 37°57' E 023°37'0 0.3
2014-Aug-31 17:33N 37°57' E 023°36'2 1.8
2014-Aug-31 16:33N 37°56' E 023°38'0 0.0
2014-Aug-31 15:33N 37°56' E 023°38'3 2.5
2014-Aug-31 14:33N 37°57' E 023°35'1 1.1
2014-Aug-31 13:33N 37°57' E 023°36'1 1.0
2014-Aug-31 12:33N 37°58' E 023°36'0 0.4
2014-Aug-31 11:33N 37°57' E 023°36'0 0.5
2014-Aug-31 10:33N 37°57' E 023°37'0 0.0
2014-Aug-31 09:33N 37°57' E 023°37'0 0.0
2014-Aug-31 08:33N 37°57' E 023°37'0 0.0
2014-Aug-31 07:33N 37°57' E 023°37'0 0.0
2014-Aug-31 06:34N 37°57' E 023°37'1 1.1
2014-Aug-31 05:34N 37°57' E 023°35'0 0.0
2014-Aug-31 04:34N 37°57' E 023°35'0 0.0
2014-Aug-31 03:33N 37°57' E 023°35'1 1.0
2014-Aug-31 02:33N 37°57' E 023°37'0 0.0
2014-Aug-31 01:33N 37°57' E 023°37'0 0.0
2014-Aug-31 00:33N 37°57' E 023°37'0 0.0
2014-Aug-30 23:33N 37°57' E 023°37'0 0.0
2014-Aug-30 22:33N 37°57' E 023°37'0 0.0
2014-Aug-30 21:33N 37°57' E 023°37'1 1.0
2014-Aug-30 20:33N 37°57' E 023°35'0 0.3
2014-Aug-30 19:33N 37°57' E 023°35'1 1.0
2014-Aug-30 18:34N 37°57' E 023°37'0 0.0
2014-Aug-30 17:33N 37°57' E 023°37'0 0.0
2014-Aug-30 16:34N 37°57' E 023°37'0 0.0
2014-Aug-30 15:34N 37°57' E 023°37'1 1.5
2014-Aug-30 14:33N 37°57' E 023°35'6 5.7
2014-Aug-30 13:33N 38°02' E 023°31'4 4.4
2014-Aug-30 12:33N 37°58' E 023°33'3 3.0
2014-Aug-30 11:33N 37°57' E 023°37'0 0.0
2014-Aug-30 10:33N 37°57' E 023°37'0 0.0
2014-Aug-30 09:34N 37°57' E 023°37'0 0.0
2014-Aug-30 08:33N 37°57' E 023°37'3 2.7
2014-Aug-30 07:34N 37°57' E 023°33'1 0.9
2014-Aug-30 06:33N 37°58' E 023°33'4 3.9
2014-Aug-30 05:33N 38°01' E 023°36'2 1.8
2014-Aug-30 04:33N 38°00' E 023°34'4 3.7
2014-Aug-30 03:33N 37°57' E 023°37'0 0.0
2014-Aug-30 02:33N 37°57' E 023°37'0 0.0
2014-Aug-30 01:33N 37°57' E 023°37'0 0.0
2014-Aug-30 00:33N 37°57' E 023°37'0 0.0
2014-Aug-29 23:33N 37°57' E 023°37'0 0.0
2014-Aug-29 22:33N 37°57' E 023°37'0 0.0
2014-Aug-29 21:33N 37°57' E 023°37'0 0.0
2014-Aug-29 20:33N 37°57' E 023°37'1 1.2
2014-Aug-29 19:33N 37°57' E 023°35'1 1.2
2014-Aug-29 18:34N 37°57' E 023°37'0 0.0
2014-Aug-29 17:33N 37°57' E 023°37'0 0.0
2014-Aug-29 16:33N 37°57' E 023°37'1 1.0
2014-Aug-29 15:33N 37°56' E 023°37'1 1.1
2014-Aug-29 14:33N 37°57' E 023°37'0 0.0
2014-Aug-29 13:33N 37°57' E 023°37'0 0.0
2014-Aug-29 12:33N 37°57' E 023°37'0 0.0
2014-Aug-29 11:33N 37°57' E 023°37'0 0.0
2014-Aug-29 03:14N 37°57' E 023°37'0 0.0
2014-Aug-29 02:34N 37°57' E 023°37'0 0.0
2014-Aug-29 01:34N 37°57' E 023°37'0 0.0
2014-Aug-29 00:34N 37°57' E 023°37'0 0.0
2014-Aug-28 23:33N 37°57' E 023°37'0 0.0
2014-Aug-28 22:33N 37°57' E 023°37'0 0.0
2014-Aug-28 21:33N 37°57' E 023°37'0 0.0
2014-Aug-28 20:33N 37°57' E 023°37'0 0.0
2014-Aug-28 19:33N 37°57' E 023°37'0 0.0
2014-Aug-28 18:33N 37°57' E 023°37'2 2.2
2014-Aug-28 17:34N 37°58' E 023°34'4 3.9
2014-Aug-28 16:31N 38°01' E 023°35'4 3.7
2014-Aug-28 15:33N 38°01' E 023°31'0 0.5
2014-Aug-28 14:32N 38°02' E 023°30'6 6.1
2014-Aug-28 13:33N 37°57' E 023°35'1 1.2
2014-Aug-28 12:33N 37°57' E 023°36'1 0.8
2014-Aug-28 11:33N 37°57' E 023°37'0 0.0
2014-Aug-28 06:34N 37°57' E 023°36'2 2.2
2014-Aug-28 05:33N 37°55' E 023°37'1 1.0
2014-Aug-28 04:32N 37°56' E 023°37'1 0.7
2014-Aug-28 03:33N 37°56' E 023°38'2 1.8
2014-Aug-28 02:33N 37°57' E 023°36'1 1.4
2014-Aug-28 01:33N 37°56' E 023°37'1 1.3
2014-Aug-28 00:33N 37°57' E 023°37'0 0.0
2014-Aug-27 23:33N 37°57' E 023°37'0 0.0
2014-Aug-27 22:33N 37°57' E 023°37'0 0.0
2014-Aug-27 21:33N 37°57' E 023°37'0 0.0
2014-Aug-27 20:33N 37°57' E 023°37'0 0.0
2014-Aug-27 19:33N 37°57' E 023°37'0 0.0
2014-Aug-27 18:34N 37°57' E 023°37'1 0.1
2014-Aug-27 05:05N 37°57' E 023°36'0 0.6
2014-Aug-27 04:33N 37°57' E 023°35'1 1.0
2014-Aug-27 03:33N 37°57' E 023°37'0 0.0
2014-Aug-27 02:33N 37°57' E 023°37'1 1.0
2014-Aug-27 01:33N 37°57' E 023°35'1 1.0
2014-Aug-27 00:33N 37°57' E 023°37'1 0.9
2014-Aug-26 23:33N 37°57' E 023°36'1 0.9
2014-Aug-26 22:33N 37°57' E 023°37'0 0.0
2014-Aug-26 21:33N 37°57' E 023°37'0 0.0
2014-Aug-26 20:33N 37°57' E 023°37'0 0.0
2014-Aug-26 19:33N 37°57' E 023°37'0 0.0
2014-Aug-26 18:33N 37°57' E 023°37'0 0.0
2014-Aug-26 17:33N 37°57' E 023°37'0 0.0
2014-Aug-26 16:33N 37°57' E 023°37'0 0.0
2014-Aug-26 15:33N 37°57' E 023°37'0 0.0
2014-Aug-26 14:33N 37°57' E 023°37'1 1.1
2014-Aug-26 13:33N 37°57' E 023°35'1 1.1
2014-Aug-26 12:33N 37°57' E 023°37'0 0.0
2014-Aug-26 11:33N 37°57' E 023°37'1 0.3
2014-Aug-26 08:33N 37°57' E 023°36'1 0.8
2014-Aug-26 07:33N 37°57' E 023°37'0 0.0
2014-Aug-26 06:33N 37°57' E 023°37'0 0.0
2014-Aug-26 05:34N 37°57' E 023°37'1 1.1
2014-Aug-26 04:33N 37°57' E 023°35'1 1.1
2014-Aug-26 03:33N 37°57' E 023°37'0 0.0
2014-Aug-26 02:34N 37°57' E 023°37'0 0.0
2014-Aug-26 01:34N 37°57' E 023°37'0 0.0
2014-Aug-26 00:34N 37°57' E 023°37'0 0.0
2014-Aug-25 23:34N 37°57' E 023°37'0 0.0
2014-Aug-25 22:33N 37°57' E 023°37'0 0.0
2014-Aug-25 21:33N 37°57' E 023°37'0 0.0
2014-Aug-25 20:33N 37°57' E 023°37'0 0.0
2014-Aug-25 19:33N 37°57' E 023°37'0 0.0
2014-Aug-25 18:34N 37°57' E 023°37'0 0.0
2014-Aug-25 17:34N 37°57' E 023°37'4 3.7
2014-Aug-25 16:32N 38°00' E 023°34'1 1.0
2014-Aug-25 15:27N 38°01' E 023°35'4 4.1
2014-Aug-25 14:34N 37°58' E 023°34'2 2.2
2014-Aug-25 13:34N 37°57' E 023°37'1 1.1
2014-Aug-25 12:33N 37°57' E 023°35'1 0.1
2014-Aug-25 05:09N 37°57' E 023°37'1 1.7
2014-Aug-25 04:33N 37°57' E 023°35'1 1.1
2014-Aug-25 03:32N 37°57' E 023°37'0 0.0
2014-Aug-25 02:33N 37°57' E 023°37'0 0.0
2014-Aug-25 01:10N 37°57' E 023°37'0 0.0
2014-Aug-24 23:33N 37°57' E 023°37'0 0.0
2014-Aug-24 22:14N 37°57' E 023°37'0 0.0
2014-Aug-24 21:33N 37°57' E 023°37'0 0.0
2014-Aug-24 20:33N 37°57' E 023°37'1 1.1
2014-Aug-24 19:33N 37°57' E 023°35'1 1.1
2014-Aug-24 18:33N 37°57' E 023°37'0 0.0
2014-Aug-24 17:33N 37°57' E 023°37'0 0.0
2014-Aug-24 16:33N 37°57' E 023°37'0 0.0
2014-Aug-24 15:33N 37°57' E 023°37'0 0.0
2014-Aug-24 14:33N 37°57' E 023°37'0 0.0
2014-Aug-24 13:33N 37°57' E 023°37'1 1.1
2014-Aug-24 12:33N 37°57' E 023°35'1 0.5
2014-Aug-24 11:33N 37°57' E 023°35'1 1.4
2014-Aug-24 10:33N 37°57' E 023°37'0 0.0
2014-Aug-24 09:33N 37°57' E 023°37'0 0.0
2014-Aug-24 08:33N 37°57' E 023°37'0 0.0
2014-Aug-24 07:33N 37°57' E 023°37'0 0.0
2014-Aug-24 06:33N 37°57' E 023°37'1 0.9
2014-Aug-24 05:34N 37°57' E 023°36'0 0.3
2014-Aug-24 04:33N 37°57' E 023°35'0 0.1
2014-Aug-24 03:33N 37°57' E 023°35'1 1.1
2014-Aug-24 02:33N 37°57' E 023°37'1 0.9
2014-Aug-24 01:33N 37°57' E 023°36'1 0.9
2014-Aug-24 00:33N 37°57' E 023°37'0 0.0
2014-Aug-23 23:33N 37°57' E 023°37'  
Track history (hours):
 
Tides and Currents Weather Stations Pressure Air Temp Water Temp Dewpoint Dewpoint Depression Visibility Wind Speed Wind Dir Waves Ship Positions

Armadores I

Last reported at 2014-Sep-02 23:31 UTC. Time now 2014-Sep-03 00:12 UTC.
Position N 37°57' E 023°37'.

Length 32 m.

Type: Tug. MMSI: 240694000.

Date/timePositionNaut miles runAvg speedWind from/ knotsBaromVisibWave heightAir tempDewpointWater temp
2014-Sep-02 23:31N 37°57' E 023°37'0 0.0
2014-Sep-02 22:34N 37°57' E 023°37'0 0.0
2014-Sep-02 21:33N 37°57' E 023°37'0 0.0
2014-Sep-02 20:34N 37°57' E 023°37'0 0.0
2014-Sep-02 19:34N 37°57' E 023°37'0 0.0
2014-Sep-02 18:34N 37°57' E 023°37'0 0.0
2014-Sep-02 17:34N 37°57' E 023°37'0 0.0
2014-Sep-02 16:34N 37°57' E 023°37'1 1.4
2014-Sep-02 15:34N 37°56' E 023°37'1 0.8
2014-Sep-02 14:33N 37°57' E 023°36'1 0.9
2014-Sep-02 13:33N 37°57' E 023°37'0 0.0
2014-Sep-02 12:33N 37°57' E 023°37'0 0.4
2014-Sep-02 11:34N 37°57' E 023°36'2 0.7
2014-Sep-02 08:33N 37°56' E 023°35'8 8.4
2014-Sep-02 07:34N 37°52' E 023°25'6 5.9
2014-Sep-02 06:32N 37°58' E 023°23'1 1.2
2014-Sep-02 05:33N 37°58' E 023°24'0 0.0
2014-Sep-02 04:28N 37°58' E 023°24'6 5.7
2014-Sep-02 03:26N 38°00' E 023°31'6 6.7
2014-Sep-02 02:29N 37°56' E 023°38'0 0.3
2014-Sep-02 01:32N 37°56' E 023°37'0 0.1
2014-Sep-02 00:33N 37°56' E 023°37'0 0.0
2014-Sep-01 23:33N 37°56' E 023°37'0 0.0
2014-Sep-01 22:32N 37°56' E 023°37'0 0.0
2014-Sep-01 21:28N 37°56' E 023°37'1 1.4
2014-Sep-01 20:33N 37°57' E 023°36'1 0.8
2014-Sep-01 19:33N 37°57' E 023°37'1 0.7
2014-Sep-01 18:33N 37°57' E 023°36'2 1.6
2014-Sep-01 17:33N 37°58' E 023°34'0 0.0
2014-Sep-01 16:33N 37°58' E 023°34'0 0.0
2014-Sep-01 15:33N 37°58' E 023°34'0 0.0
2014-Sep-01 14:33N 37°58' E 023°34'0 0.0
2014-Sep-01 13:33N 37°58' E 023°34'0 0.0
2014-Sep-01 12:33N 37°58' E 023°34'0 0.0
2014-Sep-01 11:33N 37°58' E 023°34'0 0.0
2014-Sep-01 03:24N 37°58' E 023°34'2 2.7
2014-Sep-01 02:33N 37°57' E 023°37'0 0.0
2014-Sep-01 01:33N 37°57' E 023°37'0 0.0
2014-Sep-01 00:33N 37°57' E 023°37'0 0.0
2014-Aug-31 23:34N 37°57' E 023°37'1 1.2
2014-Aug-31 22:33N 37°57' E 023°35'1 1.2
2014-Aug-31 21:33N 37°57' E 023°37'1 1.1
2014-Aug-31 20:34N 37°57' E 023°35'1 0.8
2014-Aug-31 19:34N 37°57' E 023°35'2 1.7
2014-Aug-31 18:33N 37°57' E 023°37'0 0.3
2014-Aug-31 17:33N 37°57' E 023°36'2 1.8
2014-Aug-31 16:33N 37°56' E 023°38'0 0.0
2014-Aug-31 15:33N 37°56' E 023°38'3 2.5
2014-Aug-31 14:33N 37°57' E 023°35'1 1.1
2014-Aug-31 13:33N 37°57' E 023°36'1 1.0
2014-Aug-31 12:33N 37°58' E 023°36'0 0.4
2014-Aug-31 11:33N 37°57' E 023°36'0 0.5
2014-Aug-31 10:33N 37°57' E 023°37'0 0.0
2014-Aug-31 09:33N 37°57' E 023°37'0 0.0
2014-Aug-31 08:33N 37°57' E 023°37'0 0.0
2014-Aug-31 07:33N 37°57' E 023°37'0 0.0
2014-Aug-31 06:34N 37°57' E 023°37'1 1.1
2014-Aug-31 05:34N 37°57' E 023°35'0 0.0
2014-Aug-31 04:34N 37°57' E 023°35'0 0.0
2014-Aug-31 03:33N 37°57' E 023°35'1 1.0
2014-Aug-31 02:33N 37°57' E 023°37'0 0.0
2014-Aug-31 01:33N 37°57' E 023°37'0 0.0
2014-Aug-31 00:33N 37°57' E 023°37'0 0.0
2014-Aug-30 23:33N 37°57' E 023°37'0 0.0
2014-Aug-30 22:33N 37°57' E 023°37'0 0.0
2014-Aug-30 21:33N 37°57' E 023°37'1 1.0
2014-Aug-30 20:33N 37°57' E 023°35'0 0.3
2014-Aug-30 19:33N 37°57' E 023°35'1 1.0
2014-Aug-30 18:34N 37°57' E 023°37'0 0.0
2014-Aug-30 17:33N 37°57' E 023°37'0 0.0
2014-Aug-30 16:34N 37°57' E 023°37'0 0.0
2014-Aug-30 15:34N 37°57' E 023°37'1 1.5
2014-Aug-30 14:33N 37°57' E 023°35'6 5.7
2014-Aug-30 13:33N 38°02' E 023°31'4 4.4
2014-Aug-30 12:33N 37°58' E 023°33'3 3.0
2014-Aug-30 11:33N 37°57' E 023°37'0 0.0
2014-Aug-30 10:33N 37°57' E 023°37'0 0.0
2014-Aug-30 09:34N 37°57' E 023°37'0 0.0
2014-Aug-30 08:33N 37°57' E 023°37'3 2.7
2014-Aug-30 07:34N 37°57' E 023°33'1 0.9
2014-Aug-30 06:33N 37°58' E 023°33'4 3.9
2014-Aug-30 05:33N 38°01' E 023°36'2 1.8
2014-Aug-30 04:33N 38°00' E 023°34'4 3.7
2014-Aug-30 03:33N 37°57' E 023°37'0 0.0
2014-Aug-30 02:33N 37°57' E 023°37'0 0.0
2014-Aug-30 01:33N 37°57' E 023°37'0 0.0
2014-Aug-30 00:33N 37°57' E 023°37'0 0.0
2014-Aug-29 23:33N 37°57' E 023°37'0 0.0
2014-Aug-29 22:33N 37°57' E 023°37'0 0.0
2014-Aug-29 21:33N 37°57' E 023°37'0 0.0
2014-Aug-29 20:33N 37°57' E 023°37'1 1.2
2014-Aug-29 19:33N 37°57' E 023°35'1 1.2
2014-Aug-29 18:34N 37°57' E 023°37'0 0.0
2014-Aug-29 17:33N 37°57' E 023°37'0 0.0
2014-Aug-29 16:33N 37°57' E 023°37'1 1.0
2014-Aug-29 15:33N 37°56' E 023°37'1 1.1
2014-Aug-29 14:33N 37°57' E 023°37'0 0.0
2014-Aug-29 13:33N 37°57' E 023°37'0 0.0
2014-Aug-29 12:33N 37°57' E 023°37'0 0.0
2014-Aug-29 11:33N 37°57' E 023°37'0 0.0
2014-Aug-29 03:14N 37°57' E 023°37'0 0.0
2014-Aug-29 02:34N 37°57' E 023°37'0 0.0
2014-Aug-29 01:34N 37°57' E 023°37'0 0.0
2014-Aug-29 00:34N 37°57' E 023°37'0 0.0
2014-Aug-28 23:33N 37°57' E 023°37'0 0.0
2014-Aug-28 22:33N 37°57' E 023°37'0 0.0
2014-Aug-28 21:33N 37°57' E 023°37'0 0.0
2014-Aug-28 20:33N 37°57' E 023°37'0 0.0
2014-Aug-28 19:33N 37°57' E 023°37'0 0.0
2014-Aug-28 18:33N 37°57' E 023°37'2 2.2
2014-Aug-28 17:34N 37°58' E 023°34'4 3.9
2014-Aug-28 16:31N 38°01' E 023°35'4 3.7
2014-Aug-28 15:33N 38°01' E 023°31'0 0.5
2014-Aug-28 14:32N 38°02' E 023°30'6 6.1
2014-Aug-28 13:33N 37°57' E 023°35'1 1.2
2014-Aug-28 12:33N 37°57' E 023°36'1 0.8
2014-Aug-28 11:33N 37°57' E 023°37'0 0.0
2014-Aug-28 06:34N 37°57' E 023°36'2 2.2
2014-Aug-28 05:33N 37°55' E 023°37'1 1.0
2014-Aug-28 04:32N 37°56' E 023°37'1 0.7
2014-Aug-28 03:33N 37°56' E 023°38'2 1.8
2014-Aug-28 02:33N 37°57' E 023°36'1 1.4
2014-Aug-28 01:33N 37°56' E 023°37'1 1.3
2014-Aug-28 00:33N 37°57' E 023°37'0 0.0
2014-Aug-27 23:33N 37°57' E 023°37'0 0.0
2014-Aug-27 22:33N 37°57' E 023°37'0 0.0
2014-Aug-27 21:33N 37°57' E 023°37'0 0.0
2014-Aug-27 20:33N 37°57' E 023°37'0 0.0
2014-Aug-27 19:33N 37°57' E 023°37'0 0.0
2014-Aug-27 18:34N 37°57' E 023°37'1 0.1
2014-Aug-27 05:05N 37°57' E 023°36'0 0.6
2014-Aug-27 04:33N 37°57' E 023°35'1 1.0
2014-Aug-27 03:33N 37°57' E 023°37'0 0.0
2014-Aug-27 02:33N 37°57' E 023°37'1 1.0
2014-Aug-27 01:33N 37°57' E 023°35'1 1.0
2014-Aug-27 00:33N 37°57' E 023°37'1 0.9
2014-Aug-26 23:33N 37°57' E 023°36'1 0.9
2014-Aug-26 22:33N 37°57' E 023°37'0 0.0
2014-Aug-26 21:33N 37°57' E 023°37'0 0.0
2014-Aug-26 20:33N 37°57' E 023°37'0 0.0
2014-Aug-26 19:33N 37°57' E 023°37'0 0.0
2014-Aug-26 18:33N 37°57' E 023°37'0 0.0
2014-Aug-26 17:33N 37°57' E 023°37'0 0.0
2014-Aug-26 16:33N 37°57' E 023°37'0 0.0
2014-Aug-26 15:33N 37°57' E 023°37'0 0.0
2014-Aug-26 14:33N 37°57' E 023°37'1 1.1
2014-Aug-26 13:33N 37°57' E 023°35'1 1.1
2014-Aug-26 12:33N 37°57' E 023°37'0 0.0
2014-Aug-26 11:33N 37°57' E 023°37'1 0.3
2014-Aug-26 08:33N 37°57' E 023°36'1 0.8
2014-Aug-26 07:33N 37°57' E 023°37'0 0.0
2014-Aug-26 06:33N 37°57' E 023°37'0 0.0
2014-Aug-26 05:34N 37°57' E 023°37'1 1.1
2014-Aug-26 04:33N 37°57' E 023°35'1 1.1
2014-Aug-26 03:33N 37°57' E 023°37'0 0.0
2014-Aug-26 02:34N 37°57' E 023°37'0 0.0
2014-Aug-26 01:34N 37°57' E 023°37'0 0.0
2014-Aug-26 00:34N 37°57' E 023°37'0 0.0
2014-Aug-25 23:34N 37°57' E 023°37'0 0.0
2014-Aug-25 22:33N 37°57' E 023°37'0 0.0
2014-Aug-25 21:33N 37°57' E 023°37'0 0.0
2014-Aug-25 20:33N 37°57' E 023°37'0 0.0
2014-Aug-25 19:33N 37°57' E 023°37'0 0.0
2014-Aug-25 18:34N 37°57' E 023°37'0 0.0
2014-Aug-25 17:34N 37°57' E 023°37'4 3.7
2014-Aug-25 16:32N 38°00' E 023°34'1 1.0
2014-Aug-25 15:27N 38°01' E 023°35'4 4.1
2014-Aug-25 14:34N 37°58' E 023°34'2 2.2
2014-Aug-25 13:34N 37°57' E 023°37'1 1.1
2014-Aug-25 12:33N 37°57' E 023°35'1 0.1
2014-Aug-25 05:09N 37°57' E 023°37'1 1.7
2014-Aug-25 04:33N 37°57' E 023°35'1 1.1
2014-Aug-25 03:32N 37°57' E 023°37'0 0.0
2014-Aug-25 02:33N 37°57' E 023°37'0 0.0
2014-Aug-25 01:10N 37°57' E 023°37'0 0.0
2014-Aug-24 23:33N 37°57' E 023°37'0 0.0
2014-Aug-24 22:14N 37°57' E 023°37'0 0.0
2014-Aug-24 21:33N 37°57' E 023°37'0 0.0
2014-Aug-24 20:33N 37°57' E 023°37'1 1.1
2014-Aug-24 19:33N 37°57' E 023°35'1 1.1
2014-Aug-24 18:33N 37°57' E 023°37'0 0.0
2014-Aug-24 17:33N 37°57' E 023°37'0 0.0
2014-Aug-24 16:33N 37°57' E 023°37'0 0.0
2014-Aug-24 15:33N 37°57' E 023°37'0 0.0
2014-Aug-24 14:33N 37°57' E 023°37'0 0.0
2014-Aug-24 13:33N 37°57' E 023°37'1 1.1
2014-Aug-24 12:33N 37°57' E 023°35'1 0.5
2014-Aug-24 11:33N 37°57' E 023°35'1 1.4
2014-Aug-24 10:33N 37°57' E 023°37'0 0.0
2014-Aug-24 09:33N 37°57' E 023°37'0 0.0
2014-Aug-24 08:33N 37°57' E 023°37'0 0.0
2014-Aug-24 07:33N 37°57' E 023°37'0 0.0
2014-Aug-24 06:33N 37°57' E 023°37'1 0.9
2014-Aug-24 05:34N 37°57' E 023°36'0 0.3
2014-Aug-24 04:33N 37°57' E 023°35'0 0.1
2014-Aug-24 03:33N 37°57' E 023°35'1 1.1
2014-Aug-24 02:33N 37°57' E 023°37'1 0.9
2014-Aug-24 01:33N 37°57' E 023°36'1 0.9
2014-Aug-24 00:33N 37°57' E 023°37'0 0.0
2014-Aug-23 23:33N 37°57' E 023°37'  

Dump ship's entire track history